Time;durP1;ratioP1;P1;durP2;ratioP2;P2;SDS_P1;SDS_P2;PMS_P1;PMS_P2;Temp;Humidity;BMP_temperature;BMP_pressure;BME280_temperature;BME280_humidity;BME280_pressure;Samples;Min_cycle;Max_cycle;Signal;HPM_P1;HPM_P2
2022/03/16 00:01:53;;;;;;;12.88;4.72;;;9.80;99.90;;;;;;5057235;28;20029;-79
2022/03/16 00:04:19;;;;;;;9.63;3.92;;;9.80;99.90;;;;;;5055141;28;20029;-79
2022/03/16 00:06:44;;;;;;;20.42;5.03;;;9.70;99.90;;;;;;5055975;28;20021;-79
2022/03/16 00:09:10;;;;;;;14.43;5.22;;;9.70;99.90;;;;;;5055533;28;20029;-78
2022/03/16 00:11:36;;;;;;;10.50;5.03;;;9.60;99.90;;;;;;5056964;28;20021;-78
2022/03/16 00:14:02;;;;;;;13.93;5.70;;;9.60;99.90;;;;;;5056076;28;20068;-78
2022/03/16 00:16:27;;;;;;;18.08;5.72;;;9.50;99.90;;;;;;5056197;28;20435;-78
2022/03/16 00:18:53;;;;;;;16.08;5.55;;;9.50;99.90;;;;;;5055679;28;20453;-78
2022/03/16 00:21:19;;;;;;;20.88;5.68;;;9.40;99.90;;;;;;5056109;28;20501;-77
2022/03/16 00:23:45;;;;;;;11.25;5.25;;;9.30;99.90;;;;;;5057626;28;20025;-79
2022/03/16 00:26:10;;;;;;;18.17;5.05;;;9.30;99.90;;;;;;5056570;28;20021;-79
2022/03/16 00:28:36;;;;;;;9.57;5.00;;;9.20;99.90;;;;;;5055472;28;20063;-78
2022/03/16 00:31:05;;;;;;;15.07;6.00;;;9.20;99.90;;;;;;5056540;28;20025;-79
2022/03/16 00:33:31;;;;;;;11.77;5.60;;;9.20;99.90;;;;;;5055959;28;20017;-78
2022/03/16 00:35:57;;;;;;;14.50;6.07;;;9.20;99.90;;;;;;5055219;28;20043;-78
2022/03/16 00:38:23;;;;;;;14.25;6.03;;;9.30;99.90;;;;;;5053975;28;20029;-79
2022/03/16 00:40:48;;;;;;;15.10;5.38;;;9.30;99.90;;;;;;5053846;28;20512;-78
2022/03/16 00:43:14;;;;;;;14.88;6.22;;;9.20;99.90;;;;;;5055127;28;20052;-79
2022/03/16 00:45:40;;;;;;;12.35;6.53;;;9.20;99.90;;;;;;5055258;28;20033;-78
2022/03/16 00:48:06;;;;;;;12.00;6.97;;;9.20;99.90;;;;;;5055265;28;20032;-78
2022/03/16 00:50:34;;;;;;;12.90;7.25;;;9.20;99.90;;;;;;5054741;28;20040;-77
2022/03/16 00:53:00;;;;;;;14.02;6.68;;;9.10;99.90;;;;;;5054918;28;20029;-78
2022/03/16 00:55:27;;;;;;;15.00;7.20;;;9.10;99.90;;;;;;5056447;28;20049;-78
2022/03/16 00:57:52;;;;;;;15.98;6.95;;;9.10;99.90;;;;;;5053625;28;20029;-78
2022/03/16 01:00:18;;;;;;;12.55;8.57;;;9.10;99.90;;;;;;5055041;28;20025;-78
2022/03/16 01:02:44;;;;;;;20.70;8.07;;;9.10;99.90;;;;;;5054578;28;20032;-77
2022/03/16 01:05:10;;;;;;;15.00;7.72;;;9.10;99.90;;;;;;5053398;28;20453;-78
2022/03/16 01:07:35;;;;;;;17.55;9.57;;;9.10;99.90;;;;;;5061800;28;20033;-78
2022/03/16 01:10:01;;;;;;;14.73;9.65;;;9.10;99.90;;;;;;5053478;28;20583;-78
2022/03/16 01:12:27;;;;;;;19.25;12.13;;;9.00;99.90;;;;;;5053696;28;20037;-79
2022/03/16 01:14:53;;;;;;;20.65;11.35;;;9.00;99.90;;;;;;5054480;28;20461;-78
2022/03/16 01:17:19;;;;;;;15.70;10.50;;;9.00;99.90;;;;;;5054340;28;20017;-78
2022/03/16 01:19:44;;;;;;;15.13;10.52;;;9.00;99.90;;;;;;5055157;28;20096;-79
2022/03/16 01:22:10;;;;;;;16.05;11.68;;;8.90;99.90;;;;;;5053886;28;20021;-78
2022/03/16 01:24:36;;;;;;;15.10;11.20;;;9.00;99.90;;;;;;5054322;28;20029;-78
2022/03/16 01:27:02;;;;;;;15.45;10.70;;;8.90;99.90;;;;;;5054601;28;20041;-78
2022/03/16 01:29:27;;;;;;;15.45;11.75;;;8.90;99.90;;;;;;5055415;28;20025;-79
2022/03/16 01:31:54;;;;;;;17.85;12.02;;;8.80;99.90;;;;;;5054306;28;20058;-78
2022/03/16 01:34:21;;;;;;;22.85;12.48;;;8.80;99.90;;;;;;5053739;28;20490;-77
2022/03/16 01:36:47;;;;;;;20.02;12.98;;;8.80;99.90;;;;;;5054924;28;20028;-79
2022/03/16 01:39:13;;;;;;;17.85;13.55;;;8.80;99.90;;;;;;5054157;28;20033;-77
2022/03/16 01:41:39;;;;;;;14.52;11.63;;;8.80;99.90;;;;;;5054299;28;20071;-77
2022/03/16 01:44:05;;;;;;;20.40;12.63;;;8.70;99.90;;;;;;5054428;28;20029;-79
2022/03/16 01:46:31;;;;;;;17.90;12.93;;;8.80;99.90;;;;;;5055543;28;20066;-78
2022/03/16 01:49:00;;;;;;;19.73;13.90;;;8.70;99.90;;;;;;5055542;28;20378;-78
2022/03/16 01:51:26;;;;;;;17.17;13.38;;;8.70;99.90;;;;;;5054742;28;20029;-78
2022/03/16 01:53:52;;;;;;;17.17;12.75;;;8.70;99.90;;;;;;5052705;28;20591;-78
2022/03/16 01:56:18;;;;;;;16.95;13.85;;;8.80;99.90;;;;;;5053968;28;20109;-78
2022/03/16 01:58:45;;;;;;;17.02;13.85;;;8.80;99.90;;;;;;5054707;28;20600;-79
2022/03/16 02:01:11;;;;;;;18.80;14.02;;;8.80;99.90;;;;;;5052680;28;20097;-77
2022/03/16 02:03:37;;;;;;;18.65;14.32;;;8.80;99.90;;;;;;5054291;28;20028;-78
2022/03/16 02:06:03;;;;;;;19.73;15.10;;;8.80;99.90;;;;;;5055866;28;20048;-78
2022/03/16 02:08:30;;;;;;;17.67;14.27;;;8.80;99.90;;;;;;5061498;28;20032;-78
2022/03/16 02:10:56;;;;;;;17.92;14.55;;;8.70;99.90;;;;;;5054528;28;20123;-77
2022/03/16 02:13:21;;;;;;;18.23;14.02;;;8.70;99.90;;;;;;5053922;28;20104;-79
2022/03/16 02:15:47;;;;;;;22.60;15.25;;;8.70;99.90;;;;;;5054071;28;20040;-78
2022/03/16 02:18:14;;;;;;;20.95;15.00;;;8.70;99.90;;;;;;5053390;28;20035;-78
2022/03/16 02:20:40;;;;;;;24.10;14.93;;;8.70;99.90;;;;;;5055966;28;20400;-78
2022/03/16 02:23:07;;;;;;;22.90;15.68;;;8.80;99.90;;;;;;5072838;28;20595;-78
2022/03/16 02:25:47;;;;;;;23.85;15.18;;;8.70;99.90;;;;;;5062993;28;20087;-77
2022/03/16 02:28:12;;;;;;;18.83;14.30;;;8.70;99.90;;;;;;5055043;28;20028;-78
2022/03/16 02:30:38;;;;;;;19.80;15.82;;;8.60;99.90;;;;;;5053986;28;20417;-79
2022/03/16 02:33:04;;;;;;;19.48;15.40;;;8.60;99.90;;;;;;5054707;28;20025;-78
2022/03/16 02:35:31;;;;;;;24.00;15.75;;;8.60;99.90;;;;;;5053653;28;20023;-78
2022/03/16 02:37:58;;;;;;;22.98;16.42;;;8.70;99.90;;;;;;5069570;28;20032;-77
2022/03/16 02:40:24;;;;;;;24.50;17.15;;;8.80;99.90;;;;;;5053228;28;20033;-79
2022/03/16 02:42:51;;;;;;;22.95;17.92;;;8.70;99.90;;;;;;5052202;28;20021;-78
2022/03/16 02:45:17;;;;;;;25.45;18.38;;;8.70;99.90;;;;;;5052683;28;20025;-78
2022/03/16 02:47:43;;;;;;;23.33;17.40;;;8.70;99.90;;;;;;5053941;28;20049;-78
2022/03/16 02:50:12;;;;;;;23.33;17.48;;;8.70;99.90;;;;;;5053277;28;20550;-77
2022/03/16 02:52:38;;;;;;;24.65;16.95;;;8.60;99.90;;;;;;5053513;28;20036;-78
2022/03/16 02:55:06;;;;;;;27.30;18.67;;;8.60;99.90;;;;;;5054454;28;20031;-78
2022/03/16 02:57:32;;;;;;;22.20;16.20;;;8.60;99.90;;;;;;5054623;28;20176;-78
2022/03/16 02:59:57;;;;;;;24.90;18.45;;;8.60;99.90;;;;;;5053718;28;20075;-78
2022/03/16 03:02:23;;;;;;;21.88;17.17;;;8.60;99.90;;;;;;5053863;28;20296;-78
2022/03/16 03:04:49;;;;;;;23.48;18.05;;;8.50;99.90;;;;;;5056700;28;20079;-78
2022/03/16 03:07:15;;;;;;;27.60;18.42;;;8.40;99.90;;;;;;5060333;28;20021;-80
2022/03/16 03:09:40;;;;;;;26.20;18.65;;;8.40;99.90;;;;;;5060061;28;20040;-78
2022/03/16 03:12:07;;;;;;;25.73;18.30;;;8.30;99.90;;;;;;5057632;28;20040;-77
2022/03/16 03:14:33;;;;;;;24.48;18.77;;;8.20;99.90;;;;;;5057432;28;20052;-78
2022/03/16 03:16:59;;;;;;;26.35;19.45;;;8.20;99.90;;;;;;5057442;28;20017;-77
2022/03/16 03:19:25;;;;;;;25.83;18.70;;;8.10;99.90;;;;;;5058057;28;20036;-78
2022/03/16 03:21:51;;;;;;;26.55;18.58;;;8.20;99.90;;;;;;5057810;28;20029;-78
2022/03/16 03:24:17;;;;;;;28.25;19.83;;;8.20;99.90;;;;;;5057731;28;20029;-77
2022/03/16 03:26:43;;;;;;;25.25;18.17;;;8.10;99.90;;;;;;5054608;28;20060;-78
2022/03/16 03:29:10;;;;;;;23.33;17.25;;;8.00;99.90;;;;;;5058922;28;20029;-77
2022/03/16 03:31:36;;;;;;;23.10;16.90;;;8.10;99.90;;;;;;5057706;28;20028;-77
2022/03/16 03:34:02;;;;;;;30.45;21.00;;;8.00;99.90;;;;;;5056665;28;20025;-77
2022/03/16 03:36:28;;;;;;;29.23;20.55;;;8.10;99.90;;;;;;5059046;28;20032;-78
2022/03/16 03:38:53;;;;;;;28.75;21.33;;;8.00;99.90;;;;;;5064816;28;20420;-78
2022/03/16 03:41:19;;;;;;;28.00;19.65;;;7.90;99.90;;;;;;5058839;28;20395;-78
2022/03/16 03:43:45;;;;;;;33.30;22.15;;;7.90;99.90;;;;;;5057954;28;20112;-77
2022/03/16 03:46:11;;;;;;;30.42;21.13;;;7.90;99.90;;;;;;5059974;28;20512;-78
2022/03/16 03:48:37;;;;;;;29.35;20.50;;;7.90;99.90;;;;;;5059081;28;20500;-78
2022/03/16 03:51:02;;;;;;;28.50;20.98;;;7.90;99.90;;;;;;5059508;28;20388;-78
2022/03/16 03:53:28;;;;;;;28.13;20.27;;;7.90;99.90;;;;;;5058282;28;20033;-78
2022/03/16 03:55:54;;;;;;;29.52;20.35;;;7.90;99.90;;;;;;5058641;28;20036;-78
2022/03/16 03:58:19;;;;;;;25.83;18.52;;;7.80;99.90;;;;;;5057457;28;20025;-78
2022/03/16 04:00:46;;;;;;;26.70;18.42;;;7.80;99.90;;;;;;5060267;28;20021;-79
2022/03/16 04:03:11;;;;;;;23.77;17.80;;;7.70;99.90;;;;;;5057759;28;20014;-77
2022/03/16 04:05:37;;;;;;;24.65;18.10;;;7.70;99.90;;;;;;5056870;28;20036;-77
2022/03/16 04:08:03;;;;;;;22.05;16.48;;;7.60;99.90;;;;;;5056392;28;20513;-78
2022/03/16 04:10:29;;;;;;;22.15;16.20;;;7.60;99.90;;;;;;5054517;28;20029;-79
2022/03/16 04:12:55;;;;;;;22.90;17.08;;;7.60;99.90;;;;;;5058681;28;20025;-76
2022/03/16 04:15:21;;;;;;;22.73;17.17;;;7.50;99.90;;;;;;5055593;28;20033;-77
2022/03/16 04:17:47;;;;;;;23.52;17.20;;;7.50;99.90;;;;;;5057498;28;20079;-78
2022/03/16 04:20:13;;;;;;;22.83;17.27;;;7.60;99.90;;;;;;5057742;28;20052;-78
2022/03/16 04:22:39;;;;;;;21.80;16.85;;;7.50;99.90;;;;;;5057963;28;20428;-78
2022/03/16 04:25:05;;;;;;;20.65;15.95;;;7.60;99.90;;;;;;5057473;28;20029;-78
2022/03/16 04:27:31;;;;;;;22.67;17.08;;;7.50;99.90;;;;;;5070180;28;20021;-79
2022/03/16 04:29:57;;;;;;;23.63;17.80;;;7.40;99.90;;;;;;5070627;28;20139;-78
2022/03/16 04:32:23;;;;;;;23.67;17.63;;;7.20;99.90;;;;;;5056213;28;20088;-76
2022/03/16 04:34:49;;;;;;;25.48;17.50;;;7.00;99.90;;;;;;5055983;28;20025;-78
2022/03/16 04:37:15;;;;;;;27.13;18.90;;;6.80;99.90;;;;;;5055524;28;20017;-77
2022/03/16 04:39:41;;;;;;;26.20;18.83;;;6.70;99.90;;;;;;5055483;28;20027;-76
2022/03/16 04:42:07;;;;;;;25.77;18.05;;;6.60;99.90;;;;;;5056047;28;20025;-76
2022/03/16 04:44:33;;;;;;;27.98;20.08;;;6.60;99.90;;;;;;5055703;28;20013;-76
2022/03/16 04:46:59;;;;;;;30.05;20.92;;;6.60;99.90;;;;;;5055431;28;20033;-77
2022/03/16 04:49:25;;;;;;;29.50;20.20;;;6.50;99.90;;;;;;5054708;28;20078;-77
2022/03/16 04:51:50;;;;;;;31.73;21.27;;;6.50;99.90;;;;;;5052443;28;20028;-77
2022/03/16 04:54:16;;;;;;;31.40;23.02;;;6.40;99.90;;;;;;5055142;28;20037;-78
2022/03/16 04:56:43;;;;;;;33.33;23.15;;;6.40;99.90;;;;;;5054466;28;20074;-77
2022/03/16 04:59:09;;;;;;;30.38;21.75;;;6.30;99.90;;;;;;5055311;28;20033;-77
2022/03/16 05:01:35;;;;;;;29.55;21.08;;;6.20;99.90;;;;;;5055007;28;20032;-78
2022/03/16 05:04:00;;;;;;;28.90;20.67;;;6.20;99.90;;;;;;5054779;28;20041;-78
2022/03/16 05:06:26;;;;;;;28.63;19.75;;;6.20;99.90;;;;;;5056265;28;20055;-76
2022/03/16 05:08:52;;;;;;;28.10;20.00;;;6.10;99.90;;;;;;5067831;23;20037;-77
2022/03/16 05:11:21;;;;;;;27.42;19.00;;;6.10;99.90;;;;;;5038237;28;20029;-77
2022/03/16 05:13:47;;;;;;;27.23;19.17;;;6.20;99.90;;;;;;5040264;28;20023;-78
2022/03/16 05:16:12;;;;;;;30.83;19.20;;;6.20;99.90;;;;;;5050812;28;20033;-78
2022/03/16 05:18:40;;;;;;;27.77;18.98;;;6.20;99.90;;;;;;5050110;28;20124;-78
2022/03/16 05:21:09;;;;;;;27.63;19.45;;;6.30;99.90;;;;;;5070938;28;20071;-78
2022/03/16 05:23:38;;;;;;;29.95;19.80;;;6.30;99.90;;;;;;5070593;28;20068;-79
2022/03/16 05:26:04;;;;;;;27.73;19.75;;;6.30;99.90;;;;;;5071242;28;20075;-79
2022/03/16 05:28:30;;;;;;;25.35;17.98;;;6.40;99.90;;;;;;5055307;28;20420;-77
2022/03/16 05:30:56;;;;;;;26.05;18.70;;;6.40;99.90;;;;;;5055089;28;20070;-77
2022/03/16 05:33:23;;;;;;;23.65;16.85;;;6.40;99.90;;;;;;5059752;28;20088;-78
2022/03/16 05:35:49;;;;;;;29.80;20.67;;;6.50;99.90;;;;;;5055768;28;20021;-78
2022/03/16 05:38:15;;;;;;;28.15;19.40;;;6.50;99.90;;;;;;5036630;28;20029;-78
2022/03/16 05:40:42;;;;;;;30.05;19.83;;;6.40;99.90;;;;;;5038980;28;20034;-78
2022/03/16 05:43:09;;;;;;;27.92;19.50;;;6.50;99.90;;;;;;5020589;28;20538;-78
2022/03/16 05:45:35;;;;;;;26.75;18.50;;;6.50;99.90;;;;;;5016479;28;20475;-78
2022/03/16 05:48:01;;;;;;;27.38;19.65;;;6.50;99.90;;;;;;5018910;28;20079;-78
2022/03/16 05:50:28;;;;;;;29.63;19.58;;;6.50;99.90;;;;;;5055432;28;20033;-77
2022/03/16 05:53:02;;;;;;;30.02;20.95;;;6.50;99.90;;;;;;5035500;28;20099;-77
2022/03/16 05:55:28;;;;;;;28.25;19.92;;;6.50;99.90;;;;;;5043039;28;20030;-77
2022/03/16 05:57:53;;;;;;;30.17;19.42;;;6.50;99.90;;;;;;5032624;28;20021;-76
2022/03/16 06:00:21;;;;;;;26.38;17.83;;;6.40;99.90;;;;;;5033007;28;20390;-77
2022/03/16 06:02:49;;;;;;;27.02;19.10;;;6.40;99.90;;;;;;5017999;28;20026;-77
2022/03/16 06:05:16;;;;;;;26.50;19.08;;;6.40;99.90;;;;;;5033047;28;20025;-77
2022/03/16 06:07:42;;;;;;;28.42;19.60;;;6.50;99.90;;;;;;5032122;28;20107;-77
2022/03/16 06:10:10;;;;;;;29.73;19.73;;;6.40;99.90;;;;;;5031626;28;20041;-77
2022/03/16 06:12:56;;;;;;;28.70;17.58;;;6.40;99.90;;;;;;5024477;28;20424;-77
2022/03/16 06:15:24;;;;;;;26.30;19.05;;;6.50;99.90;;;;;;5031819;28;20022;-77
2022/03/16 06:17:51;;;;;;;26.45;19.00;;;6.40;99.90;;;;;;5031923;28;20032;-77
2022/03/16 06:20:17;;;;;;;25.15;17.70;;;6.50;99.90;;;;;;5032109;28;20022;-77
2022/03/16 06:22:43;;;;;;;24.88;18.05;;;6.60;99.90;;;;;;5014099;28;20026;-77
2022/03/16 06:25:09;;;;;;;24.55;17.65;;;6.60;99.90;;;;;;5031737;28;20053;-77
2022/03/16 06:27:34;;;;;;;25.98;17.98;;;6.60;99.90;;;;;;5031795;28;20030;-76
2022/03/16 06:30:01;;;;;;;27.45;18.63;;;6.60;99.90;;;;;;5031819;28;20554;-77
2022/03/16 06:32:27;;;;;;;28.33;18.63;;;6.60;99.90;;;;;;5032277;28;20049;-77
2022/03/16 06:34:53;;;;;;;28.55;19.42;;;6.70;99.90;;;;;;5014371;28;20076;-78
2022/03/16 06:37:19;;;;;;;27.83;19.67;;;6.70;99.90;;;;;;5030653;28;20022;-77
2022/03/16 06:39:45;;;;;;;27.80;18.63;;;6.70;99.90;;;;;;5036346;28;20107;-77
2022/03/16 06:42:11;;;;;;;27.38;18.23;;;6.70;99.90;;;;;;5010530;28;20038;-77
2022/03/16 06:44:36;;;;;;;25.45;17.35;;;6.70;99.90;;;;;;5034738;28;20059;-78
2022/03/16 06:47:02;;;;;;;25.30;18.30;;;6.70;99.90;;;;;;5031271;28;20026;-78
2022/03/16 06:49:28;;;;;;;31.30;20.15;;;6.80;99.90;;;;;;5036517;28;20063;-77
2022/03/16 06:51:54;;;;;;;28.67;20.15;;;6.80;99.90;;;;;;5036977;28;20025;-78
2022/03/16 06:54:20;;;;;;;31.77;21.02;;;6.80;99.90;;;;;;5035879;28;20438;-77
2022/03/16 06:56:45;;;;;;;30.63;19.67;;;6.80;99.90;;;;;;5035281;28;20481;-77
2022/03/16 06:59:11;;;;;;;28.40;19.88;;;6.80;99.90;;;;;;5036589;28;20024;-78
2022/03/16 07:01:37;;;;;;;29.58;19.67;;;6.80;99.90;;;;;;5036618;28;20032;-78
2022/03/16 07:04:04;;;;;;;30.77;19.92;;;6.70;99.90;;;;;;5037816;28;20026;-78
2022/03/16 07:06:29;;;;;;;28.48;19.58;;;6.70;99.90;;;;;;5035425;28;20029;-78
2022/03/16 07:08:55;;;;;;;32.50;20.23;;;6.70;99.90;;;;;;5035857;28;20030;-77
2022/03/16 07:11:21;;;;;;;31.02;20.80;;;6.70;99.90;;;;;;5033583;28;20033;-78
2022/03/16 07:14:30;;;;;;;31.48;21.02;;;6.70;99.90;;;;;;5036695;28;20040;-80
2022/03/16 07:16:33;;;;;;;30.67;20.80;;;6.70;99.90;;;;;;5035639;28;20071;-77
2022/03/16 07:18:59;;;;;;;38.92;23.52;;;6.70;99.90;;;;;;5037206;28;20025;-76
2022/03/16 07:21:25;;;;;;;30.42;20.88;;;6.70;99.90;;;;;;5036006;28;20029;-76
2022/03/16 07:23:51;;;;;;;32.05;22.30;;;6.60;99.90;;;;;;5026655;28;20028;-76
2022/03/16 07:26:16;;;;;;;32.67;24.00;;;6.60;99.90;;;;;;5035466;28;20029;-78
2022/03/16 07:28:42;;;;;;;34.53;23.50;;;6.60;99.90;;;;;;5016767;28;20084;-77
2022/03/16 07:31:11;;;;;;;36.42;22.10;;;6.60;99.90;;;;;;5034395;28;20116;-77
2022/03/16 07:33:37;;;;;;;28.38;20.70;;;6.60;99.90;;;;;;5034341;28;20026;-77
2022/03/16 07:36:03;;;;;;;33.13;22.10;;;6.70;99.90;;;;;;5036370;28;20426;-77
2022/03/16 07:38:29;;;;;;;28.15;20.13;;;6.80;99.90;;;;;;5034427;28;20409;-77
2022/03/16 07:40:54;;;;;;;31.70;22.13;;;6.90;99.90;;;;;;5034978;28;20139;-77
2022/03/16 07:43:20;;;;;;;31.95;22.00;;;7.00;99.90;;;;;;5031385;28;20029;-77
2022/03/16 07:45:46;;;;;;;29.65;21.65;;;6.90;99.90;;;;;;5034236;28;20556;-77
2022/03/16 07:48:12;;;;;;;29.42;21.15;;;6.90;99.90;;;;;;5034559;28;20257;-76
2022/03/16 07:50:38;;;;;;;30.70;21.08;;;6.90;99.90;;;;;;5016825;28;20040;-77
2022/03/16 07:53:04;;;;;;;30.20;21.70;;;6.80;99.90;;;;;;5034969;28;20452;-78
2022/03/16 07:55:30;;;;;;;30.05;21.55;;;6.80;99.90;;;;;;5037266;28;20033;-77
2022/03/16 07:57:56;;;;;;;29.52;21.15;;;6.80;99.90;;;;;;5046227;28;20026;-77
2022/03/16 08:00:25;;;;;;;29.17;19.02;;;6.90;99.90;;;;;;5047866;28;20032;-77
2022/03/16 08:02:54;;;;;;;31.67;20.95;;;6.90;99.90;;;;;;5019135;28;20029;-78
2022/03/16 08:05:24;;;;;;;29.75;20.15;;;6.90;99.90;;;;;;5035308;28;20030;-78
2022/03/16 08:07:50;;;;;;;26.65;18.88;;;6.90;99.90;;;;;;5034680;28;20021;-77
2022/03/16 08:10:16;;;;;;;27.52;18.92;;;7.00;99.90;;;;;;5033770;28;20029;-78
2022/03/16 08:12:42;;;;;;;25.98;18.17;;;7.00;99.90;;;;;;5024540;28;20060;-77
2022/03/16 08:15:08;;;;;;;24.50;17.70;;;7.00;99.90;;;;;;5034784;28;20029;-78
2022/03/16 08:17:34;;;;;;;25.23;18.73;;;7.10;99.90;;;;;;5028923;28;20021;-78
2022/03/16 08:19:59;;;;;;;22.08;16.55;;;7.20;99.90;;;;;;5037572;28;20500;-78
2022/03/16 08:22:31;;;;;;;22.42;17.00;;;7.30;99.90;;;;;;5038936;28;20482;-79
2022/03/16 08:25:02;;;;;;;20.80;15.93;;;7.40;99.90;;;;;;5020711;28;20064;-78
2022/03/16 08:27:27;;;;;;;25.80;18.60;;;7.40;99.60;;;;;;5020611;28;20041;-78
2022/03/16 08:29:54;;;;;;;26.27;18.83;;;7.50;99.20;;;;;;5037023;28;20458;-79
2022/03/16 08:32:20;;;;;;;24.38;18.17;;;7.50;99.10;;;;;;5023044;28;20037;-78
2022/03/16 08:34:47;;;;;;;25.15;17.50;;;7.50;98.90;;;;;;5038985;28;20458;-77
2022/03/16 08:37:13;;;;;;;22.90;16.90;;;7.60;98.80;;;;;;5036840;28;20078;-78
2022/03/16 08:39:40;;;;;;;24.70;17.25;;;7.60;98.80;;;;;;5038030;28;20021;-78
2022/03/16 08:42:08;;;;;;;24.80;17.00;;;7.80;98.80;;;;;;5027918;28;20132;-77
2022/03/16 08:44:34;;;;;;;21.48;16.17;;;7.90;98.40;;;;;;5025166;28;20028;-77
2022/03/16 08:47:00;;;;;;;23.13;17.27;;;7.90;98.00;;;;;;5035910;28;20120;-78
2022/03/16 08:49:26;;;;;;;25.15;16.17;;;7.90;97.60;;;;;;5038050;28;20036;-78
2022/03/16 08:51:52;;;;;;;23.83;17.52;;;7.90;97.50;;;;;;5018640;28;20038;-77
2022/03/16 08:54:18;;;;;;;24.13;17.60;;;8.00;97.50;;;;;;5035477;28;20049;-78
2022/03/16 08:56:44;;;;;;;22.10;17.02;;;8.10;97.30;;;;;;5035741;28;20390;-77
2022/03/16 08:59:10;;;;;;;23.88;16.42;;;8.10;97.00;;;;;;5034295;28;20032;-78
2022/03/16 09:01:37;;;;;;;23.48;17.23;;;8.00;97.10;;;;;;5037256;28;20029;-78
2022/03/16 09:04:03;;;;;;;24.77;18.63;;;8.00;97.00;;;;;;5038705;28;20097;-78
2022/03/16 09:06:29;;;;;;;29.45;19.85;;;7.90;96.80;;;;;;5018329;28;20018;-78
2022/03/16 09:08:55;;;;;;;24.33;18.02;;;7.70;96.90;;;;;;5020100;28;20032;-78
2022/03/16 09:11:21;;;;;;;25.05;18.92;;;7.60;97.50;;;;;;5032923;28;20354;-78
2022/03/16 09:13:49;;;;;;;27.80;18.90;;;7.50;97.40;;;;;;5035042;28;20549;-77
2022/03/16 09:16:15;;;;;;;23.88;16.80;;;7.50;97.80;;;;;;5017070;28;20029;-77
2022/03/16 09:18:41;;;;;;;23.17;17.30;;;7.50;98.10;;;;;;5019069;28;20075;-77
2022/03/16 09:21:07;;;;;;;25.10;17.70;;;7.60;98.00;;;;;;5039025;28;20059;-77
2022/03/16 09:23:33;;;;;;;27.90;18.95;;;7.60;97.90;;;;;;5046876;28;20030;-77
2022/03/16 09:26:00;;;;;;;27.08;19.58;;;7.50;97.60;;;;;;5050103;28;20036;-77
2022/03/16 09:28:26;;;;;;;25.52;18.88;;;7.50;97.80;;;;;;5019771;28;20033;-79
2022/03/16 09:30:52;;;;;;;26.45;19.23;;;7.60;97.70;;;;;;5028147;28;20056;-79
2022/03/16 09:33:18;;;;;;;21.67;16.25;;;7.70;97.70;;;;;;5051944;28;20034;-78
2022/03/16 09:35:44;;;;;;;22.15;16.25;;;7.80;97.20;;;;;;5055458;28;20021;-79
2022/03/16 09:38:12;;;;;;;25.02;17.65;;;7.80;97.30;;;;;;5054737;28;20009;-77
2022/03/16 09:40:38;;;;;;;22.83;16.85;;;7.80;97.20;;;;;;5055239;28;20032;-77
2022/03/16 09:43:08;;;;;;;24.35;16.80;;;7.80;96.80;;;;;;5055178;28;20021;-77
2022/03/16 09:45:46;;;;;;;26.23;17.40;;;7.80;97.10;;;;;;5035299;28;20033;-77
2022/03/16 09:48:13;;;;;;;20.05;14.90;;;7.80;97.40;;;;;;5050638;28;20033;-78
2022/03/16 09:50:41;;;;;;;21.08;16.75;;;7.90;97.40;;;;;;5029924;28;20029;-78
2022/03/16 09:53:11;;;;;;;22.92;15.77;;;7.90;96.50;;;;;;5036551;28;20100;-77
2022/03/16 09:55:37;;;;;;;19.92;14.68;;;7.80;96.90;;;;;;5035691;28;20386;-77
2022/03/16 09:58:04;;;;;;;21.05;15.52;;;7.90;97.00;;;;;;5036113;28;20025;-77
2022/03/16 10:00:30;;;;;;;20.25;14.60;;;7.90;96.60;;;;;;5033668;28;20548;-77
2022/03/16 10:03:00;;;;;;;21.92;15.40;;;7.90;96.70;;;;;;5017738;28;20056;-77
2022/03/16 10:05:26;;;;;;;20.27;15.07;;;7.90;96.60;;;;;;5019139;28;20105;-78
2022/03/16 10:07:59;;;;;;;22.38;16.17;;;7.80;96.30;;;;;;5035401;28;20026;-77
2022/03/16 10:13:18;;;;;;;20.38;13.45;;;7.70;97.00;;;;;;5037194;28;19996;-77
2022/03/16 10:15:44;;;;;;;18.10;13.60;;;7.70;97.10;;;;;;5035359;28;20057;-77
2022/03/16 10:18:10;;;;;;;22.00;14.45;;;7.80;97.00;;;;;;5019293;28;20334;-77
2022/03/16 10:20:39;;;;;;;23.25;14.80;;;7.80;96.70;;;;;;5034963;28;20021;-77
2022/03/16 10:23:14;;;;;;;21.75;15.15;;;7.80;96.90;;;;;;5019076;28;20068;-77
2022/03/16 10:25:54;;;;;;;19.05;14.13;;;7.90;96.90;;;;;;5042361;28;20029;-79
2022/03/16 10:28:24;;;;;;;18.98;14.38;;;8.10;96.70;;;;;;5024128;28;20053;-78
2022/03/16 10:31:01;;;;;;;19.75;14.57;;;8.30;96.10;;;;;;5042114;28;20028;-78
2022/03/16 10:33:33;;;;;;;18.15;14.32;;;8.50;95.80;;;;;;5025624;28;20029;-78
2022/03/16 10:36:00;;;;;;;19.60;13.10;;;8.70;95.40;;;;;;5041128;28;20032;-78
2022/03/16 10:38:27;;;;;;;19.25;13.40;;;8.90;95.00;;;;;;5039019;28;20034;-79
2022/03/16 10:41:13;;;;;;;19.20;13.98;;;8.90;94.80;;;;;;5021554;28;20034;-78
2022/03/16 10:46:38;;;;;;;18.90;13.27;;;9.20;94.60;;;;;;5036839;28;20032;-78
2022/03/16 10:49:06;;;;;;;17.48;13.07;;;9.40;94.00;;;;;;5039457;28;20052;-78
2022/03/16 10:51:32;;;;;;;20.88;14.07;;;9.60;93.70;;;;;;5024358;28;20021;-78
2022/03/16 10:54:00;;;;;;;22.55;15.90;;;9.50;92.60;;;;;;5029245;28;20059;-78
2022/03/16 10:56:28;;;;;;;23.10;15.30;;;9.40;92.80;;;;;;5050454;28;20059;-78
2022/03/16 10:58:55;;;;;;;22.77;16.52;;;9.20;92.90;;;;;;5032669;28;20036;-78
2022/03/16 11:01:22;;;;;;;19.25;14.93;;;9.00;93.50;;;;;;5022063;28;20061;-77
2022/03/16 11:03:50;;;;;;;21.85;14.80;;;9.10;94.30;;;;;;5036180;28;20029;-78
2022/03/16 11:06:23;;;;;;;19.70;13.93;;;9.20;94.10;;;;;;5040227;28;20033;-78
2022/03/16 11:08:50;;;;;;;16.25;12.68;;;9.40;94.30;;;;;;5066745;22;20048;-83
2022/03/16 11:14:03;;;;;;;23.85;16.17;;;9.40;93.50;;;;;;5072838;28;20055;-81
2022/03/16 11:16:33;;;;;;;23.10;16.67;;;9.40;93.20;;;;;;5073383;28;20044;-83
2022/03/16 11:19:04;;;;;;;19.75;15.88;;;9.00;93.70;;;;;;5067160;28;20108;-84
2022/03/16 11:21:44;;;;;;;21.53;14.93;;;9.00;94.40;;;;;;5058898;28;20427;-85
2022/03/16 11:24:17;;;;;;;19.38;15.18;;;9.20;94.50;;;;;;5059291;28;20036;-85
2022/03/16 11:27:02;;;;;;;17.63;13.85;;;9.20;93.90;;;;;;5064350;28;20489;-84
2022/03/16 11:29:58;;;;;;;16.42;13.07;;;9.40;93.80;;;;;;5065690;28;20009;-81
2022/03/16 11:32:24;;;;;;;17.50;13.43;;;9.60;93.50;;;;;;5053247;28;20147;-83
2022/03/16 11:35:00;;;;;;;15.90;12.25;;;9.90;93.20;;;;;;5049480;28;20053;-82
2022/03/16 11:37:52;;;;;;;15.63;11.65;;;10.00;92.70;;;;;;5063065;28;20025;-85
2022/03/16 11:40:25;;;;;;;14.93;12.57;;;10.30;92.30;;;;;;5066216;28;20120;-84
2022/03/16 11:43:11;;;;;;;20.05;14.57;;;10.40;91.70;;;;;;5062563;28;20111;-85
2022/03/16 11:45:41;;;;;;;16.60;13.20;;;10.60;90.00;;;;;;5065036;28;20035;-84
2022/03/16 11:48:31;;;;;;;16.38;13.05;;;10.50;90.10;;;;;;5062541;28;20127;-79
2022/03/16 11:51:09;;;;;;;15.63;12.57;;;10.70;90.60;;;;;;5060338;28;20184;-79
2022/03/16 11:53:47;;;;;;;12.93;10.98;;;11.30;90.30;;;;;;5060706;28;20053;-80
2022/03/16 11:56:21;;;;;;;21.23;11.98;;;11.90;88.10;;;;;;5058567;28;20021;-80
2022/03/16 11:59:03;;;;;;;15.82;12.60;;;12.20;84.90;;;;;;5059229;28;20037;-80
2022/03/16 12:01:33;;;;;;;15.52;12.10;;;12.40;82.80;;;;;;5059420;28;20446;-80
2022/03/16 12:04:22;;;;;;;14.32;11.98;;;12.30;80.20;;;;;;5060768;28;20033;-80
2022/03/16 12:07:01;;;;;;;11.35;9.73;;;12.30;81.80;;;;;;5058660;28;20080;-80
2022/03/16 12:09:46;;;;;;;12.80;10.63;;;12.40;81.60;;;;;;5066341;28;20370;-80
2022/03/16 12:15:14;;;;;;;10.85;9.32;;;12.10;78.90;;;;;;5062606;28;20098;-80
2022/03/16 12:18:01;;;;;;;11.93;10.63;;;12.20;80.50;;;;;;5061491;28;20069;-79
2022/03/16 12:20:40;;;;;;;11.50;9.57;;;12.40;79.30;;;;;;5062324;28;20029;-80
2022/03/16 12:23:12;;;;;;;9.82;8.82;;;12.50;78.30;;;;;;5060345;28;20013;-80
2022/03/16 12:25:42;;;;;;;8.93;8.02;;;12.30;78.30;;;;;;5058989;28;20079;-80
2022/03/16 12:31:13;;;;;;;15.27;10.43;;;12.20;77.80;;;;;;5057764;28;20052;-79
2022/03/16 12:33:44;;;;;;;12.27;9.50;;;12.10;78.00;;;;;;5055790;28;20032;-79
2022/03/16 12:36:13;;;;;;;9.13;8.20;;;12.20;78.40;;;;;;5055368;28;20025;-79
2022/03/16 12:38:47;;;;;;;17.00;11.85;;;12.20;78.70;;;;;;5058153;28;20056;-80
2022/03/16 12:44:01;;;;;;;11.02;9.80;;;11.90;78.10;;;;;;5052297;28;20121;-79
2022/03/16 12:46:33;;;;;;;13.57;10.80;;;11.90;79.40;;;;;;5057420;28;20017;-80
2022/03/16 12:49:12;;;;;;;12.95;10.68;;;12.00;78.70;;;;;;5054327;28;20025;-80
2022/03/16 12:51:38;;;;;;;11.20;9.32;;;12.00;78.60;;;;;;5056958;28;20178;-79
2022/03/16 12:54:08;;;;;;;11.80;10.07;;;12.10;78.60;;;;;;5056358;28;20056;-80
2022/03/16 12:56:41;;;;;;;13.70;10.90;;;12.10;78.60;;;;;;5057965;28;20051;-79
2022/03/16 12:59:08;;;;;;;17.52;12.52;;;12.10;78.60;;;;;;5057797;28;20021;-79